WetterOnline ( https://www.wetteronline.de )

Wetter aktuell Lübeck

Aktuelles Wetter: Lübeck/Blankensee (15m)

6-stündlich | Neueste Meldungen
Ortszeit Temperatur Wetter
So, 08.12. 1:00 8.3° C bedeckt
Sa, 07.12. 19:00 7.9° C Sprühregen
Sa, 07.12. 13:00 9.0° C bedeckt
Sa, 07.12. 7:00 8.8° C Sprühregen
Sa, 07.12. 1:00 7.6° C Sprühregen
Fr, 06.12. 19:00 6.0° C Sprühregen
Fr, 06.12. 13:00 5.8° C Sprühregen
Fr, 06.12. 7:00 5.7° C Sprühregen
Ortszeit Temperatur Wetter
So, 08.12. 4:30 7.9° C bedeckt
So, 08.12. 4:20 7.9° C bedeckt
So, 08.12. 4:10 8.1° C bedeckt
So, 08.12. 4:00 8.0° C bedeckt
So, 08.12. 3:50 8.0° C bedeckt
So, 08.12. 3:40 8.0° C bedeckt
So, 08.12. 3:30 8.0° C bedeckt
So, 08.12. 3:00 8.0° C bedeckt
Sa, 07.12. 19:50 8° C bewölkt
Ortszeit Relative Feuchte Sichtweite
So, 08.12. 1:00 85% 35 km
Sa, 07.12. 19:00 92% 20 km
Sa, 07.12. 13:00 85% 50 km
Sa, 07.12. 7:00 92% 20 km
Sa, 07.12. 1:00 95% 5.0 km
Fr, 06.12. 19:00 96% 7 km
Fr, 06.12. 13:00 97% 5.0 km
Fr, 06.12. 7:00 93% 10 km
Ortszeit Relative Feuchte Sichtweite
So, 08.12. 4:30 79% 45 km
So, 08.12. 4:20 79% -
So, 08.12. 4:10 78% -
So, 08.12. 4:00 78% 45 km
So, 08.12. 3:50 78% -
So, 08.12. 3:40 79% -
So, 08.12. 3:30 79% 35 km
So, 08.12. 3:00 81% 40 km
Sa, 07.12. 19:50 87% 9 km
Ortszeit Niederschlagsmenge Niederschlagsart
So, 08.12. 1:00 0.1 l/m2 in 6 Std. Regen
Sa, 07.12. 19:00 0.5 l/m2 in 12 Std. Regen
Sa, 07.12. 13:00 0.5 l/m2 in 6 Std. Regen
Sa, 07.12. 7:00 4 l/m2 in 12 Std. Regen
Sa, 07.12. 1:00 0.6 l/m2 in 6 Std. Regen
Fr, 06.12. 19:00 1 l/m2 in 12 Std. Regen
Fr, 06.12. 13:00 0.4 l/m2 in 6 Std. Regen
Fr, 06.12. 7:00 0.1 l/m2 in 12 Std. Regen
Ortszeit Niederschlagsmenge Niederschlagsart
So, 08.12. 4:30 0.0 l/m2 in 1 Std. -
So, 08.12. 4:20 keine Meldung -
So, 08.12. 4:10 keine Meldung -
So, 08.12. 4:00 0.0 l/m2 in 1 Std. -
So, 08.12. 3:50 keine Meldung -
So, 08.12. 3:40 keine Meldung -
So, 08.12. 3:30 0.0 l/m2 in 1 Std. -
So, 08.12. 3:00 0.0 l/m2 in 1 Std. -
Sa, 07.12. 19:50 keine Meldung -
Ortszeit Stärke Spitze Richtung
km/h Bft. km/h Grad Sektor
So, 08.12. 1:00 11 2 36 230° SW
Sa, 07.12. 19:00 19 3 41 260° W
Sa, 07.12. 13:00 15 3 48 250° W
Sa, 07.12. 7:00 24 4 44 260° W
Sa, 07.12. 1:00 14 3 40 220° SW
Fr, 06.12. 19:00 11 2 36 210° SW
Fr, 06.12. 13:00 13 3 46 210° SW
Fr, 06.12. 7:00 18 3 43 230° SW
Ortszeit Stärke Spitze Richtung
km/h Bft. km/h Grad Sektor
So, 08.12. 4:30 11 2 29 200° S
So, 08.12. 4:20 11 2 - 200° S
So, 08.12. 4:10 11 2 - 210° SW
So, 08.12. 4:00 11 2 32 210° SW
So, 08.12. 3:50 11 2 - 210° SW
So, 08.12. 3:40 14 3 - 210° SW
So, 08.12. 3:30 13 3 28 200° S
So, 08.12. 3:00 11 2 29 210° SW
Sa, 07.12. 19:50 20 4 - 260° W
Ortszeit Untergrenze Bedeckung Gattung
total tief tief mittel hoch
So, 08.12. 1:00 1200 m 8/8 8/8 - - -
Sa, 07.12. 19:00 300 m 7/8 7/8 - - -
Sa, 07.12. 13:00 450 m 8/8 8/8 - - -
Sa, 07.12. 7:00 450 m 8/8 8/8 - - -
Sa, 07.12. 1:00 210 m 8/8 8/8 - - -
Fr, 06.12. 19:00 240 m 7/8 7/8 - - -
Fr, 06.12. 13:00 210 m 7/8 7/8 - - -
Fr, 06.12. 7:00 270 m 8/8 8/8 - - -
Ortszeit Bedeckungsgrad in Achtel und Wolkenuntergrenze
So, 08.12. 4:30 8(720m)
So, 08.12. 4:20 8(720m)
So, 08.12. 4:10 8(780m)
So, 08.12. 4:00 8(840m)
So, 08.12. 3:50 8(840m)
So, 08.12. 3:40 8(810m)
So, 08.12. 3:30 8(840m)
So, 08.12. 3:00 3(630m) 7(810m) 8(930m)
Sa, 07.12. 19:50 5-7(330m)
Ortszeit Luftdruck NN (hPa) Tendenz (hPa in 3 Std.)
So, 08.12. 1:00 1007 - 1,1
Sa, 07.12. 19:00 1008 + 1,3
Sa, 07.12. 13:00 1005 + 1,5
Sa, 07.12. 7:00 1000 + 2,1
Sa, 07.12. 1:00 998 - 1,3
Fr, 06.12. 19:00 1001 - 1,2
Fr, 06.12. 13:00 1005 - 1,2
Fr, 06.12. 7:00 1006 - 1,1
Ortszeit Luftdruck NN (hPa) Tendenz (hPa in 3 Std.)
So, 08.12. 4:30 1003 - 3,3
So, 08.12. 4:20 1003 keine Meldung
So, 08.12. 4:10 1003 keine Meldung
So, 08.12. 4:00 1004 - 3,1
So, 08.12. 3:50 1004 keine Meldung
So, 08.12. 3:40 1004 keine Meldung
So, 08.12. 3:30 1004 - 3,3
So, 08.12. 3:00 1005 - 2,7
Sa, 07.12. 19:50 1008 keine Meldung
Ortszeit Schneehöhe (cm)
So, 08.12. 1:00 0
Sa, 07.12. 19:00 0
Sa, 07.12. 13:00 0
Sa, 07.12. 7:00 0
Sa, 07.12. 1:00 0
Fr, 06.12. 19:00 0
Fr, 06.12. 13:00 0
Fr, 06.12. 7:00 0
Ortszeit Schneehöhe (cm)
So, 08.12. 4:30 0
So, 08.12. 4:20 0
So, 08.12. 4:10 0
So, 08.12. 4:00 0
So, 08.12. 3:50 0
So, 08.12. 3:40 0
So, 08.12. 3:30 0
So, 08.12. 3:00 0
Sa, 07.12. 19:50 -
Link zu dieser Seite / Seite empfehlen

Das Wetter in ...